Time;durP1;ratioP1;P1;durP2;ratioP2;P2;SDS_P1;SDS_P2;PMS_P1;PMS_P2;Temp;Humidity;BMP_temperature;BMP_pressure;BME280_temperature;BME280_humidity;BME280_pressure;Samples;Min_cycle;Max_cycle;Signal;HPM_P1;HPM_P2
2021/12/15 00:00:14;;;;;;;;;;;;;;;-1.23;83.82;100360.09;4956453;29;19926;-60
2021/12/15 00:03:00;;;;;;;;;;;;;;;-1.33;84.05;100358.00;4957209;29;19931;-59
2021/12/15 00:05:48;;;;;;;;;;;;;;;-1.39;84.34;100361.19;4956902;29;19914;-59
2021/12/15 00:08:34;;;;;;;;;;;;;;;-1.24;83.98;100355.81;4958001;29;19922;-60
2021/12/15 00:11:20;;;;;;;;;;;;;;;-1.16;83.15;100348.47;4972991;28;19914;-60
2021/12/15 00:14:14;;;;;;;;;;;;;;;-1.10;84.02;100345.28;4959021;29;20081;-61
2021/12/15 00:17:00;;;;;;;;;;;;;;;-1.09;83.51;100344.47;4976313;28;19922;-60
2021/12/15 00:19:46;;;;;;;;;;;;;;;-1.05;83.71;100339.56;4956421;29;19997;-60
2021/12/15 00:22:32;;;;;;;;;;;;;;;-0.99;84.07;100333.84;4975995;28;19961;-60
2021/12/15 00:25:19;;;;;;;;;;;;;;;-1.03;83.63;100334.53;4977525;28;19923;-60
2021/12/15 00:28:05;;;;;;;;;;;;;;;-1.06;83.68;100334.44;4956228;29;20187;-60
2021/12/15 00:30:51;;;;;;;;;;;;;;;-0.99;84.10;100335.53;4957932;29;19922;-59
2021/12/15 00:33:38;;;;;;;;;;;;;;;-1.01;82.79;100324.41;4956165;29;19950;-60
2021/12/15 00:36:24;;;;;;;;;;;;;;;-1.12;82.98;100329.97;4957221;29;19922;-60
2021/12/15 00:39:11;;;;;;;;;;;;;;;-1.09;83.37;100327.53;4956139;29;19958;-60
2021/12/15 00:41:58;;;;;;;;;;;;;;;-1.10;83.96;100322.41;4954032;29;20224;-60
2021/12/15 00:44:44;;;;;;;;;;;;;;;-1.02;84.02;100327.78;4956105;29;19989;-60
2021/12/15 00:47:30;;;;;;;;;;;;;;;-0.96;83.34;100325.47;4955389;29;19934;-60
2021/12/15 00:50:16;;;;;;;;;;;;;;;-0.94;84.05;100329.78;4962717;28;19922;-60
2021/12/15 00:53:03;;;;;;;;;;;;;;;-1.05;83.42;100323.47;4958976;28;19919;-60
2021/12/15 00:55:49;;;;;;;;;;;;;;;-1.13;83.45;100323.16;4957907;29;20207;-60
2021/12/15 00:58:35;;;;;;;;;;;;;;;-1.16;84.15;100329.81;4961911;29;19911;-60
2021/12/15 01:01:20;;;;;;;;;;;;;;;-1.09;84.94;100319.06;4946816;29;19914;-59
2021/12/15 01:04:07;;;;;;;;;;;;;;;-1.14;84.57;100312.94;4958690;29;19981;-58
2021/12/15 01:06:56;;;;;;;;;;;;;;;-1.26;83.92;100311.69;4962319;29;19915;-59
2021/12/15 01:09:46;;;;;;;;;;;;;;;-1.18;84.64;100311.09;4960410;29;19910;-59
2021/12/15 01:21:19;;;;;;;;;;;;;;;-1.00;84.26;100301.59;4959728;29;19977;-59
2021/12/15 01:24:05;;;;;;;;;;;;;;;-1.01;84.13;100307.50;4962612;29;19922;-59
2021/12/15 01:26:51;;;;;;;;;;;;;;;-0.92;83.63;100297.66;4952663;29;19923;-59
2021/12/15 01:29:37;;;;;;;;;;;;;;;-0.92;84.23;100290.03;4961704;29;19926;-59
2021/12/15 01:32:23;;;;;;;;;;;;;;;-0.92;84.03;100286.63;4963336;29;20395;-59
2021/12/15 01:35:09;;;;;;;;;;;;;;;-0.91;83.31;100286.69;4951669;29;19918;-63
2021/12/15 01:37:55;;;;;;;;;;;;;;;-0.88;83.92;100281.69;4959827;29;19985;-60
2021/12/15 01:40:43;;;;;;;;;;;;;;;-0.85;83.04;100275.00;4951350;29;19922;-60
2021/12/15 01:49:41;;;;;;;;;;;;;;;-0.78;84.10;100277.78;4955052;29;19919;-60
2021/12/15 01:52:31;;;;;;;;;;;;;;;-0.78;83.46;100272.72;4950631;29;19922;-60
2021/12/15 01:55:19;;;;;;;;;;;;;;;-0.75;83.32;100271.94;4958434;29;19961;-60
2021/12/15 01:58:05;;;;;;;;;;;;;;;-0.78;84.45;100270.16;4951757;28;20203;-60
2021/12/15 02:01:02;;;;;;;;;;;;;;;-0.76;84.01;100275.28;4960564;29;19977;-60
2021/12/15 02:03:48;;;;;;;;;;;;;;;-0.83;83.67;100278.44;4961521;28;20228;-63
2021/12/15 02:06:34;;;;;;;;;;;;;;;-0.78;82.87;100277.78;4960367;29;20210;-60
2021/12/15 02:12:31;;;;;;;;;;;;;;;-0.88;82.79;100274.06;4959566;29;19911;-58
2021/12/15 02:15:19;;;;;;;;;;;;;;;-0.83;83.46;100273.34;4956239;29;19977;-58
2021/12/15 02:18:06;;;;;;;;;;;;;;;-0.90;83.82;100270.63;4961111;29;20366;-58
2021/12/15 02:21:13;;;;;;;;;;;;;;;-0.83;84.16;100278.44;4961555;29;19922;-59
2021/12/15 02:24:00;;;;;;;;;;;;;;;-0.94;83.45;100278.94;4948680;29;20218;-59
2021/12/15 02:26:50;;;;;;;;;;;;;;;-1.03;83.41;100272.66;4958959;29;19970;-58
2021/12/15 02:29:40;;;;;;;;;;;;;;;-1.16;83.33;100272.22;4960723;29;19922;-59
2021/12/15 02:32:41;;;;;;;;;;;;;;;-1.29;85.25;100273.47;4959896;29;20014;-59
2021/12/15 02:38:34;;;;;;;;;;;;;;;-0.99;85.11;100267.75;4957589;29;19949;-59
2021/12/15 02:41:22;;;;;;;;;;;;;;;-0.98;85.36;100274.56;4959406;29;20127;-59
2021/12/15 02:44:12;;;;;;;;;;;;;;;-0.94;85.00;100261.16;4959245;29;20319;-61
2021/12/15 02:46:58;;;;;;;;;;;;;;;-1.19;84.57;100258.56;4954966;29;19910;-60
2021/12/15 02:49:44;;;;;;;;;;;;;;;-1.24;84.88;100261.81;4959979;29;19923;-59
2021/12/15 02:52:30;;;;;;;;;;;;;;;-1.35;85.64;100269.84;4959249;29;19922;-59
2021/12/15 02:55:16;;;;;;;;;;;;;;;-1.31;85.90;100266.59;4955493;29;20159;-59
2021/12/15 02:58:02;;;;;;;;;;;;;;;-1.39;86.39;100266.34;4959635;29;19949;-63
2021/12/15 03:00:59;;;;;;;;;;;;;;;-1.30;86.23;100258.19;4959571;29;20084;-59
2021/12/15 03:07:02;;;;;;;;;;;;;;;-1.30;85.80;100263.25;4953668;29;19914;-59
2021/12/15 03:15:38;;;;;;;;;;;;;;;-1.08;85.72;100257.28;4945838;29;19922;-59
2021/12/15 03:18:25;;;;;;;;;;;;;;;-0.98;84.63;100248.25;4946909;29;19941;-59
2021/12/15 03:21:16;;;;;;;;;;;;;;;-1.10;84.46;100251.25;4959711;28;19986;-59
2021/12/15 03:24:15;;;;;;;;;;;;;;;-1.16;85.30;100253.59;4984689;28;19918;-59
2021/12/15 03:27:06;;;;;;;;;;;;;;;-1.08;84.91;100254.72;4958774;29;19922;-59
2021/12/15 03:36:07;;;;;;;;;;;;;;;-0.96;83.98;100239.88;4959650;29;19957;-61
2021/12/15 03:38:53;;;;;;;;;;;;;;;-0.92;84.87;100241.72;4958908;29;19915;-61
2021/12/15 03:41:39;;;;;;;;;;;;;;;-0.86;84.39;100238.53;4958003;29;19926;-59
2021/12/15 03:44:25;;;;;;;;;;;;;;;-0.80;83.98;100246.34;4959101;29;19922;-62
2021/12/15 03:47:13;;;;;;;;;;;;;;;-0.76;83.34;100249.88;4958331;29;19953;-59
2021/12/15 03:50:00;;;;;;;;;;;;;;;-0.90;83.58;100213.81;4957358;29;19955;-59
2021/12/15 03:52:48;;;;;;;;;;;;;;;-0.72;83.83;100239.00;4958575;29;19953;-58
2021/12/15 03:55:35;;;;;;;;;;;;;;;-0.79;83.35;100245.53;4959559;29;20097;-58
2021/12/15 03:58:23;;;;;;;;;;;;;;;-0.80;83.06;100237.84;4945542;29;19914;-59
2021/12/15 04:01:11;;;;;;;;;;;;;;;-1.02;82.60;100206.63;4944007;29;19922;-58
2021/12/15 04:03:58;;;;;;;;;;;;;;;-0.72;82.76;100236.44;4958574;29;19965;-58
2021/12/15 04:06:44;;;;;;;;;;;;;;;-0.73;83.00;100238.13;4945036;29;19918;-59
2021/12/15 04:09:29;;;;;;;;;;;;;;;-0.68;82.40;100243.38;4956983;29;19922;-59
2021/12/15 04:12:15;;;;;;;;;;;;;;;-0.71;82.21;100239.03;4957825;29;19985;-58
2021/12/15 04:15:20;;;;;;;;;;;;;;;-0.81;83.49;100237.00;4958422;29;19919;-58
2021/12/15 04:18:06;;;;;;;;;;;;;;;-0.73;82.51;100232.16;4981336;28;19914;-59
2021/12/15 04:20:52;;;;;;;;;;;;;;;-0.65;82.73;100234.97;4959493;28;19914;-59
2021/12/15 04:23:38;;;;;;;;;;;;;;;-0.65;83.24;100228.19;4962832;28;19962;-60
2021/12/15 04:26:24;;;;;;;;;;;;;;;-0.70;82.68;100230.59;4960820;29;19922;-59
2021/12/15 04:29:10;;;;;;;;;;;;;;;-0.67;82.96;100232.38;4962708;29;19922;-60
2021/12/15 04:32:01;;;;;;;;;;;;;;;-0.64;83.05;100229.94;4960682;29;20209;-58
2021/12/15 04:34:47;;;;;;;;;;;;;;;-0.61;82.49;100222.41;4952391;29;19961;-59
2021/12/15 04:37:32;;;;;;;;;;;;;;;-0.65;82.34;100215.47;4957417;29;20158;-59
2021/12/15 04:40:20;;;;;;;;;;;;;;;-0.75;83.30;100213.47;4960605;29;19921;-59
2021/12/15 04:43:06;;;;;;;;;;;;;;;-0.73;82.85;100209.28;4962236;29;20092;-59
2021/12/15 04:45:51;;;;;;;;;;;;;;;-0.68;83.01;100215.41;4962208;29;20115;-59
2021/12/15 04:48:38;;;;;;;;;;;;;;;-0.69;82.20;100203.47;4949563;29;19919;-60
2021/12/15 04:51:24;;;;;;;;;;;;;;;-0.67;82.63;100201.88;4959976;29;19922;-61
2021/12/15 04:54:10;;;;;;;;;;;;;;;-0.72;82.28;100196.59;4960457;29;20222;-61
2021/12/15 04:56:56;;;;;;;;;;;;;;;-0.71;82.46;100200.88;4959388;29;20167;-58
2021/12/15 04:59:43;;;;;;;;;;;;;;;-0.80;83.68;100208.19;4961114;29;19911;-57
2021/12/15 05:02:30;;;;;;;;;;;;;;;-0.76;82.42;100209.19;4961362;29;19922;-60
2021/12/15 05:05:15;;;;;;;;;;;;;;;-0.72;82.76;100213.56;4961771;28;19989;-62
2021/12/15 05:08:02;;;;;;;;;;;;;;;-0.63;82.73;100211.31;4947465;29;20269;-60
2021/12/15 05:10:50;;;;;;;;;;;;;;;-0.66;82.37;100216.28;4962936;28;19977;-61
2021/12/15 05:13:36;;;;;;;;;;;;;;;-0.71;81.74;100205.97;4988088;28;19964;-60
2021/12/15 05:16:22;;;;;;;;;;;;;;;-0.67;82.18;100209.50;4961363;29;20115;-60
2021/12/15 05:19:07;;;;;;;;;;;;;;;-0.61;83.49;100213.91;4961551;29;19914;-61
2021/12/15 05:21:56;;;;;;;;;;;;;;;-0.61;82.27;100212.22;4963323;29;20092;-61
2021/12/15 05:24:42;;;;;;;;;;;;;;;-0.58;82.58;100214.00;4945279;29;19914;-61
2021/12/15 05:27:28;;;;;;;;;;;;;;;-0.54;83.31;100214.16;4951973;29;19929;-61
2021/12/15 05:30:16;;;;;;;;;;;;;;;-0.48;83.11;100217.72;4945151;29;19927;-60
2021/12/15 05:33:02;;;;;;;;;;;;;;;-0.47;82.96;100217.78;4944996;29;19989;-59
2021/12/15 05:35:47;;;;;;;;;;;;;;;-0.43;83.43;100221.25;4949221;29;19982;-60
2021/12/15 05:38:33;;;;;;;;;;;;;;;-0.87;82.53;100168.13;4972308;28;19926;-61
2021/12/15 05:41:19;;;;;;;;;;;;;;;-0.57;82.35;100213.19;4961668;29;19930;-61
2021/12/15 05:44:06;;;;;;;;;;;;;;;-0.52;82.29;100209.97;4959961;29;19922;-60
2021/12/15 05:46:53;;;;;;;;;;;;;;;-0.52;83.81;100206.56;4960128;29;19973;-59
2021/12/15 05:49:39;;;;;;;;;;;;;;;-0.50;83.22;100198.97;4957657;28;19958;-60
2021/12/15 05:52:29;;;;;;;;;;;;;;;-0.50;82.62;100198.97;4951311;29;19918;-60
2021/12/15 05:55:15;;;;;;;;;;;;;;;-0.58;83.15;100209.78;4959702;29;19961;-61
2021/12/15 05:58:01;;;;;;;;;;;;;;;-0.53;83.32;100205.72;4961163;29;19937;-60
2021/12/15 06:00:47;;;;;;;;;;;;;;;-0.48;82.99;100212.63;4955399;29;19982;-60
2021/12/15 06:03:33;;;;;;;;;;;;;;;-0.56;82.24;100197.09;4959961;29;19922;-61
2021/12/15 06:06:19;;;;;;;;;;;;;;;-0.57;83.79;100206.44;4958541;29;19914;-61
2021/12/15 06:09:06;;;;;;;;;;;;;;;-0.53;83.28;100210.81;4959832;29;20203;-60
2021/12/15 06:11:53;;;;;;;;;;;;;;;-0.44;83.32;100211.88;4959918;29;19921;-61
2021/12/15 06:14:39;;;;;;;;;;;;;;;-0.44;83.23;100206.78;4956238;29;20161;-60
2021/12/15 06:17:26;;;;;;;;;;;;;;;-0.48;84.15;100205.00;4957489;29;20037;-61
2021/12/15 06:20:12;;;;;;;;;;;;;;;-0.43;83.77;100203.44;4959599;29;19922;-60
2021/12/15 06:23:00;;;;;;;;;;;;;;;-0.45;83.08;100205.94;4948737;29;20513;-60
2021/12/15 06:25:53;;;;;;;;;;;;;;;-0.47;82.41;100202.50;4960629;29;19922;-62
2021/12/15 06:28:39;;;;;;;;;;;;;;;-0.47;83.18;100202.50;4956603;29;19921;-60
2021/12/15 06:31:25;;;;;;;;;;;;;;;-0.52;83.70;100207.41;4956677;29;19922;-60
2021/12/15 06:34:11;;;;;;;;;;;;;;;-0.55;83.71;100199.69;4959245;29;19922;-60
2021/12/15 06:36:57;;;;;;;;;;;;;;;-0.43;83.69;100201.78;4961549;29;20099;-60
2021/12/15 06:39:42;;;;;;;;;;;;;;;-0.50;82.82;100188.81;4960079;29;19921;-60
2021/12/15 06:42:29;;;;;;;;;;;;;;;-0.57;83.19;100191.16;4960681;29;19988;-61
2021/12/15 06:45:18;;;;;;;;;;;;;;;-0.50;83.32;100191.34;4956873;29;20064;-61
2021/12/15 06:58:10;;;;;;;;;;;;;;;-0.48;82.63;100187.19;4960233;29;19914;-61
2021/12/15 07:00:36;;;;;;;;;;;;;;;-0.44;82.63;100194.97;4958186;28;19926;-60
2021/12/15 07:03:22;;;;;;;;;;;;;;;-0.49;82.99;100195.63;4949045;29;19914;-60
2021/12/15 07:06:09;;;;;;;;;;;;;;;-0.49;82.80;100198.19;4944471;29;19914;-61
2021/12/15 07:08:54;;;;;;;;;;;;;;;-0.43;83.45;100193.28;4951908;29;19986;-60
2021/12/15 07:11:41;;;;;;;;;;;;;;;-0.40;83.18;100198.44;4960471;29;19922;-60
2021/12/15 07:14:26;;;;;;;;;;;;;;;-0.45;82.98;100205.94;4976440;28;19914;-60
2021/12/15 07:17:19;;;;;;;;;;;;;;;-0.52;83.19;100193.84;4958360;29;20172;-61
2021/12/15 07:20:29;;;;;;;;;;;;;;;-0.41;83.57;100187.41;4955459;29;19946;-60
2021/12/15 07:23:15;;;;;;;;;;;;;;;-0.32;82.89;100188.53;4959017;29;19914;-61
2021/12/15 07:26:00;;;;;;;;;;;;;;;-0.39;83.11;100184.91;4958869;29;19914;-61
2021/12/15 07:28:46;;;;;;;;;;;;;;;-0.35;82.87;100195.22;4958085;29;20009;-61
2021/12/15 07:31:32;;;;;;;;;;;;;;;-0.39;83.67;100201.03;4959489;29;19915;-61
2021/12/15 07:34:18;;;;;;;;;;;;;;;-0.43;83.73;100206.88;4959159;29;19936;-61
2021/12/15 07:37:03;;;;;;;;;;;;;;;-0.31;82.97;100211.47;4958114;29;19932;-61
2021/12/15 07:39:58;;;;;;;;;;;;;;;-0.34;82.59;100213.94;4959446;29;19925;-61
2021/12/15 07:42:56;;;;;;;;;;;;;;;-0.39;82.28;100221.41;4942467;29;19957;-61
2021/12/15 07:45:50;;;;;;;;;;;;;;;-0.31;83.11;100218.22;4950276;29;19914;-60
2021/12/15 07:48:36;;;;;;;;;;;;;;;-0.20;82.79;100222.84;4959372;29;19973;-60
2021/12/15 07:51:21;;;;;;;;;;;;;;;-0.20;82.65;100216.88;4952952;29;20238;-61
2021/12/15 07:54:07;;;;;;;;;;;;;;;-0.16;83.07;100222.94;4948940;29;19922;-60
2021/12/15 07:56:53;;;;;;;;;;;;;;;-0.13;82.76;100223.88;4960452;28;19914;-59
2021/12/15 07:59:39;;;;;;;;;;;;;;;-0.24;82.85;100231.19;4952273;29;19965;-61
2021/12/15 08:02:25;;;;;;;;;;;;;;;-0.27;82.91;100220.06;4962944;29;20266;-60
2021/12/15 08:05:11;;;;;;;;;;;;;;;-0.33;83.18;100217.31;4962845;29;19948;-60
2021/12/15 08:07:57;;;;;;;;;;;;;;;-0.37;82.97;100216.34;4961281;29;20188;-60
2021/12/15 08:10:43;;;;;;;;;;;;;;;-0.31;82.28;100215.69;4961706;29;19914;-61
2021/12/15 08:13:31;;;;;;;;;;;;;;;-0.27;81.92;100214.97;4961639;29;19914;-61
2021/12/15 08:16:19;;;;;;;;;;;;;;;-0.22;82.44;100211.75;4963380;29;20022;-61
2021/12/15 08:19:07;;;;;;;;;;;;;;;-0.23;82.22;100210.03;4961424;29;19923;-60
2021/12/15 08:21:52;;;;;;;;;;;;;;;-0.22;81.97;100201.56;4962486;29;19918;-60
2021/12/15 08:24:38;;;;;;;;;;;;;;;-0.20;82.17;100202.50;4961856;29;19914;-60
2021/12/15 08:27:24;;;;;;;;;;;;;;;-0.18;82.02;100208.47;4959523;29;20196;-61
2021/12/15 08:30:12;;;;;;;;;;;;;;;-0.07;81.95;100201.19;4961706;29;20170;-61
2021/12/15 08:32:59;;;;;;;;;;;;;;;-0.23;81.49;100201.50;4961497;29;19921;-61
2021/12/15 08:35:47;;;;;;;;;;;;;;;-0.26;80.74;100191.25;4962091;29;20139;-61
2021/12/15 08:38:35;;;;;;;;;;;;;;;-0.19;80.90;100193.16;4962471;29;19941;-61
2021/12/15 08:41:22;;;;;;;;;;;;;;;-0.06;81.75;100190.19;4962520;29;19922;-61
2021/12/15 08:44:09;;;;;;;;;;;;;;;-0.04;80.22;100190.22;4963371;29;20121;-61
2021/12/15 08:46:55;;;;;;;;;;;;;;;0.06;80.49;100187.13;4944107;29;19982;-61
2021/12/15 08:49:41;;;;;;;;;;;;;;;0.09;80.21;100188.91;4963650;29;20199;-61
2021/12/15 08:52:27;;;;;;;;;;;;;;;0.13;80.68;100183.94;4962022;29;19914;-61
2021/12/15 08:55:13;;;;;;;;;;;;;;;0.20;80.79;100174.81;4962493;29;20002;-61
2021/12/15 08:58:04;;;;;;;;;;;;;;;0.20;80.97;100176.47;4962317;29;19937;-60
2021/12/15 09:00:52;;;;;;;;;;;;;;;0.19;80.80;100172.22;4952669;29;20030;-62
2021/12/15 09:03:40;;;;;;;;;;;;;;;0.11;80.79;100179.63;4954979;29;20060;-60
2021/12/15 09:06:26;;;;;;;;;;;;;;;0.20;81.00;100173.91;4945726;29;20139;-60
2021/12/15 09:09:13;;;;;;;;;;;;;;;0.13;80.41;100180.53;4947315;29;19923;-61
2021/12/15 09:11:59;;;;;;;;;;;;;;;-0.05;80.85;100163.88;4961488;29;19933;-61
2021/12/15 09:14:46;;;;;;;;;;;;;;;0.03;81.40;100173.44;4960459;29;19922;-60
2021/12/15 09:17:32;;;;;;;;;;;;;;;0.12;80.29;100171.16;4962986;29;19965;-60
2021/12/15 09:20:20;;;;;;;;;;;;;;;0.12;80.84;100161.81;4959736;29;19933;-60
2021/12/15 09:23:08;;;;;;;;;;;;;;;0.19;81.43;100169.66;4961268;29;19995;-60
2021/12/15 09:25:54;;;;;;;;;;;;;;;0.18;81.16;100168.78;4961408;29;19918;-60
2021/12/15 09:28:40;;;;;;;;;;;;;;;0.07;81.24;100165.94;4959232;29;19921;-59
2021/12/15 09:31:27;;;;;;;;;;;;;;;0.01;81.65;100165.75;4960247;29;20080;-60
2021/12/15 09:34:17;;;;;;;;;;;;;;;0.07;82.29;100170.16;4956319;29;20174;-60
2021/12/15 09:37:04;;;;;;;;;;;;;;;-0.02;82.00;100161.44;4951155;29;19922;-60
2021/12/15 09:39:50;;;;;;;;;;;;;;;0.06;81.45;100159.13;4960268;29;20191;-62
2021/12/15 09:42:39;;;;;;;;;;;;;;;-0.01;82.09;100159.75;4959977;29;19922;-61
2021/12/15 10:04:10;;;;;;;;;;;;;;;0.12;81.57;100125.31;4956988;29;19915;-61
2021/12/15 10:06:28;;;;;;;;;;;;;;;0.16;82.95;100119.50;4946894;29;19925;-61
2021/12/15 10:18:46;;;;;;;;;;;;;;;0.13;81.74;100110.09;4958192;28;19930;-63
2021/12/15 10:21:35;;;;;;;;;;;;;;;0.22;82.42;100103.53;4960201;29;19914;-61
2021/12/15 10:24:45;;;;;;;;;;;;;;;0.15;82.13;100103.34;4959711;29;19922;-61
2021/12/15 10:27:37;;;;;;;;;;;;;;;0.28;82.53;100107.09;4944767;29;19919;-61
2021/12/15 10:30:24;;;;;;;;;;;;;;;0.31;82.69;100104.66;4958712;28;19973;-61
2021/12/15 10:33:13;;;;;;;;;;;;;;;0.41;82.23;100100.63;4957893;29;19977;-61
2021/12/15 10:36:10;;;;;;;;;;;;;;;0.46;82.86;100104.19;4945761;29;19911;-61
2021/12/15 10:38:58;;;;;;;;;;;;;;;0.51;82.47;100102.63;4958606;29;19914;-61
2021/12/15 10:41:53;;;;;;;;;;;;;;;0.56;83.07;100109.53;5076391;28;20005;-61
2021/12/15 10:44:39;;;;;;;;;;;;;;;0.57;82.66;100108.69;5083723;28;19917;-62
2021/12/15 10:47:25;;;;;;;;;;;;;;;0.52;82.63;100103.47;5085550;28;19916;-63
2021/12/15 10:50:12;;;;;;;;;;;;;;;0.45;83.09;100097.34;5080699;28;19924;-62
2021/12/15 10:52:59;;;;;;;;;;;;;;;0.49;82.44;100099.16;5081488;28;19924;-62
2021/12/15 10:55:50;;;;;;;;;;;;;;;0.59;82.95;100100.25;5083051;28;19932;-62
2021/12/15 10:58:44;;;;;;;;;;;;;;;0.59;82.42;100104.50;5057928;28;19916;-62
2021/12/15 11:01:42;;;;;;;;;;;;;;;0.62;82.46;100095.25;5090511;28;20267;-62
2021/12/15 11:04:28;;;;;;;;;;;;;;;0.49;82.67;100103.41;5087113;28;20008;-62
2021/12/15 11:07:23;;;;;;;;;;;;;;;0.59;82.64;100099.41;5085527;28;20106;-59
2021/12/15 11:10:11;;;;;;;;;;;;;;;0.70;83.13;100100.53;5094214;28;19916;-60
2021/12/15 11:12:57;;;;;;;;;;;;;;;0.73;82.70;100100.63;5092644;28;19954;-61
2021/12/15 11:15:50;;;;;;;;;;;;;;;0.71;82.74;100102.25;5074791;28;19959;-62
2021/12/15 11:18:37;;;;;;;;;;;;;;;0.62;82.66;100104.56;5061599;28;20126;-61
2021/12/15 11:21:29;;;;;;;;;;;;;;;0.72;82.41;100105.69;5078255;28;19924;-60
2021/12/15 11:24:19;;;;;;;;;;;;;;;0.77;83.23;100106.63;5083560;28;19931;-61
2021/12/15 11:27:17;;;;;;;;;;;;;;;0.79;82.87;100097.38;5076498;28;19979;-60
2021/12/15 11:30:06;;;;;;;;;;;;;;;0.82;83.15;100090.63;5075308;28;20114;-60
2021/12/15 11:32:53;;;;;;;;;;;;;;;0.69;83.01;100091.16;5075448;28;20206;-60
2021/12/15 11:35:44;;;;;;;;;;;;;;;0.78;82.59;100100.72;5076369;28;19931;-61
2021/12/15 11:38:30;;;;;;;;;;;;;;;0.71;82.82;100104.78;5083664;28;20095;-61
2021/12/15 11:41:19;;;;;;;;;;;;;;;0.73;82.74;100097.19;5090119;28;20248;-61
2021/12/15 11:44:12;;;;;;;;;;;;;;;0.75;82.99;100103.19;5086241;28;20091;-61
2021/12/15 11:47:01;;;;;;;;;;;;;;;0.82;82.85;100102.53;5083199;28;19939;-61
2021/12/15 11:49:47;;;;;;;;;;;;;;;0.84;83.30;100099.19;5081655;28;19921;-61
2021/12/15 11:52:41;;;;;;;;;;;;;;;0.89;83.62;100094.19;5052433;28;19917;-61
2021/12/15 11:55:29;;;;;;;;;;;;;;;0.88;83.07;100086.53;5075652;28;19916;-61
2021/12/15 11:58:15;;;;;;;;;;;;;;;0.89;82.60;100085.72;5062663;28;20082;-60
2021/12/15 12:01:00;;;;;;;;;;;;;;;0.79;82.55;100093.13;5047739;28;19924;-60
2021/12/15 12:04:06;;;;;;;;;;;;;;;0.81;82.29;100094.03;5077828;28;19920;-61
2021/12/15 12:06:55;;;;;;;;;;;;;;;0.88;82.45;100089.91;5078672;28;19918;-61
2021/12/15 12:09:43;;;;;;;;;;;;;;;0.88;82.39;100095.03;5077469;28;19928;-61
2021/12/15 12:12:35;;;;;;;;;;;;;;;0.71;82.01;100104.78;5062713;28;20114;-62
2021/12/15 12:15:25;;;;;;;;;;;;;;;0.67;81.13;100100.44;5052760;28;19916;-62
2021/12/15 12:18:12;;;;;;;;;;;;;;;0.68;81.92;100110.72;5057116;28;20007;-61
2021/12/15 12:21:01;;;;;;;;;;;;;;;0.58;80.79;100102.78;5076177;28;19912;-63
2021/12/15 12:23:49;;;;;;;;;;;;;;;0.45;80.71;100107.53;5064069;28;19935;-61
2021/12/15 12:26:35;;;;;;;;;;;;;;;0.48;81.17;100110.16;5075043;28;19913;-61
2021/12/15 12:29:21;;;;;;;;;;;;;;;0.41;80.86;100104.88;5051546;28;19989;-62
2021/12/15 12:32:07;;;;;;;;;;;;;;;0.36;80.90;100109.84;5074511;28;19920;-60
2021/12/15 12:34:53;;;;;;;;;;;;;;;0.38;80.83;100107.34;5069572;28;19925;-60
2021/12/15 12:37:39;;;;;;;;;;;;;;;0.47;81.77;100117.75;5062064;28;19927;-60
2021/12/15 12:40:31;;;;;;;;;;;;;;;0.44;80.78;100110.94;5054050;28;19982;-60
2021/12/15 12:43:22;;;;;;;;;;;;;;;0.41;81.98;100110.81;5063883;28;19997;-62
2021/12/15 12:46:27;;;;;;;;;;;;;;;0.41;80.51;100110.81;5063186;28;19927;-60
2021/12/15 13:01:32;;;;;;;;;;;;;;;0.47;81.89;100105.03;5062769;28;19931;-61
2021/12/15 13:04:18;;;;;;;;;;;;;;;0.51;81.25;100106.84;5070825;28;20228;-61
2021/12/15 13:07:03;;;;;;;;;;;;;;;0.38;82.36;100104.81;5060813;28;19978;-59
2021/12/15 13:09:51;;;;;;;;;;;;;;;0.38;81.83;100102.25;5063244;28;19928;-62
2021/12/15 13:12:39;;;;;;;;;;;;;;;0.42;82.15;100097.28;5058254;28;19912;-61
2021/12/15 13:15:33;;;;;;;;;;;;;;;0.48;82.07;100096.56;5064923;28;19938;-61
2021/12/15 13:18:19;;;;;;;;;;;;;;;0.47;81.98;100102.47;5069890;28;19912;-61
2021/12/15 13:21:07;;;;;;;;;;;;;;;0.23;81.95;100095.03;5068098;28;19916;-61
2021/12/15 13:24:00;;;;;;;;;;;;;;;0.20;82.25;100100.94;5069724;28;20307;-61
2021/12/15 13:29:54;;;;;;;;;;;;;;;0.42;82.54;100104.06;5069742;28;20129;-61
2021/12/15 13:32:47;;;;;;;;;;;;;;;0.39;83.52;100106.53;5074704;28;19924;-60
2021/12/15 13:35:53;;;;;;;;;;;;;;;0.33;82.38;100105.53;5058070;28;19952;-60
2021/12/15 13:38:42;;;;;;;;;;;;;;;0.38;81.83;100103.09;5060063;28;20178;-60
2021/12/15 13:44:29;;;;;;;;;;;;;;;0.27;82.00;100107.03;5059151;28;19928;-61
2021/12/15 13:47:15;;;;;;;;;;;;;;;0.31;81.89;100116.50;5062628;28;19928;-59
2021/12/15 13:50:13;;;;;;;;;;;;;;;0.35;82.03;100110.66;4846617;28;41489;-62
2021/12/15 13:53:32;;;;;;;;;;;;;;;0.39;82.20;100114.19;4996770;27;19992;-59
2021/12/15 13:56:01;;;;;;;;;;;;;;;0.31;82.24;100114.84;5076166;28;19925;-59
2021/12/15 13:58:30;;;;;;;;;;;;;;;0.36;82.32;100102.22;5076050;28;19913;-59
2021/12/15 14:00:59;;;;;;;;;;;;;;;0.31;83.05;100108.84;5076988;28;19991;-59
2021/12/15 14:03:27;;;;;;;;;;;;;;;0.26;82.91;100102.78;5049822;28;19944;-60
2021/12/15 14:07:51;;;;;;;;;;;;;;;0.31;82.54;100111.41;4934375;27;20285;-60
2021/12/15 14:10:20;;;;;;;;;;;;;;;0.35;83.23;100115.75;4845248;28;19929;-60
2021/12/15 14:13:50;;;;;;;;;;;;;;;0.25;82.81;100116.34;5104821;27;19924;-60
2021/12/15 14:16:28;;;;;;;;;;;;;;;0.31;82.86;100124.13;5012012;28;58299;-60
2021/12/15 14:18:53;;;;;;;;;;;;;;;0.39;82.69;100112.47;5112409;28;20118;-60
2021/12/15 14:21:19;;;;;;;;;;;;;;;0.38;81.89;100115.00;5094292;28;20105;-61
2021/12/15 14:23:44;;;;;;;;;;;;;;;0.40;82.94;100108.25;5115321;28;19939;-60
2021/12/15 14:26:11;;;;;;;;;;;;;;;0.49;82.97;100119.53;5117406;27;19923;-61
2021/12/15 14:28:39;;;;;;;;;;;;;;;0.29;82.36;100123.25;5119180;27;19927;-59
2021/12/15 14:31:11;;;;;;;;;;;;;;;0.36;82.92;100120.03;5123620;27;20094;-59
2021/12/15 14:33:42;;;;;;;;;;;;;;;0.39;82.78;100122.66;5098375;28;19924;-60
2021/12/15 14:36:16;;;;;;;;;;;;;;;0.44;83.32;100116.03;5124199;27;20113;-60
2021/12/15 14:38:45;;;;;;;;;;;;;;;0.42;82.31;100124.44;5118841;27;19930;-61
2021/12/15 14:41:13;;;;;;;;;;;;;;;0.49;83.10;100118.69;5099887;27;20124;-59
2021/12/15 14:43:39;;;;;;;;;;;;;;;0.57;83.35;100118.88;5116163;27;19934;-60
2021/12/15 14:46:13;;;;;;;;;;;;;;;0.61;83.36;100121.53;5115683;28;19924;-61
2021/12/15 14:48:39;;;;;;;;;;;;;;;0.49;82.88;100122.09;5114468;28;20192;-60
2021/12/15 14:51:04;;;;;;;;;;;;;;;0.57;82.89;100123.97;5116425;27;19934;-59
2021/12/15 14:53:38;;;;;;;;;;;;;;;0.64;82.84;100129.28;5118308;27;19983;-63
2021/12/15 14:56:04;;;;;;;;;;;;;;;0.67;82.28;100123.38;5119096;27;20090;-62
2021/12/15 14:58:29;;;;;;;;;;;;;;;0.63;82.27;100125.00;5105307;27;19924;-61
2021/12/15 15:00:55;;;;;;;;;;;;;;;0.64;82.40;100121.63;5124018;27;19995;-60
2021/12/15 15:03:20;;;;;;;;;;;;;;;0.64;82.64;100114.00;5125258;27;19923;-63
2021/12/15 15:05:48;;;;;;;;;;;;;;;0.62;82.86;100117.31;5123669;27;19950;-61
2021/12/15 15:08:29;;;;;;;;;;;;;;;0.55;82.56;100121.38;5091665;27;19968;-60
2021/12/15 15:10:56;;;;;;;;;;;;;;;0.49;83.61;100124.63;5083414;27;19959;-61
2021/12/15 15:13:22;;;;;;;;;;;;;;;0.55;83.82;100130.72;5149344;27;19915;-60
2021/12/15 15:15:49;;;;;;;;;;;;;;;0.55;82.65;100123.94;5147720;27;19931;-61
2021/12/15 15:18:27;;;;;;;;;;;;;;;0.54;83.45;100127.28;5142660;27;19930;-62
2021/12/15 15:20:57;;;;;;;;;;;;;;;0.51;83.88;100128.09;5141111;27;19947;-63
2021/12/15 15:23:25;;;;;;;;;;;;;;;0.54;82.85;100131.53;5132587;28;19935;-60
2021/12/15 15:25:53;;;;;;;;;;;;;;;0.40;82.98;100116.75;5122696;28;20030;-58
2021/12/15 15:28:21;;;;;;;;;;;;;;;0.40;82.93;100119.31;5122933;28;19919;-60
2021/12/15 15:30:48;;;;;;;;;;;;;;;0.40;83.31;100115.88;5123413;27;19991;-60
2021/12/15 15:33:17;;;;;;;;;;;;;;;0.49;82.46;100116.13;5125104;27;19990;-59
2021/12/15 15:35:45;;;;;;;;;;;;;;;0.50;83.18;100115.31;5106415;28;20002;-59
2021/12/15 15:38:16;;;;;;;;;;;;;;;0.54;83.07;100117.09;5122804;28;19931;-61
2021/12/15 15:40:43;;;;;;;;;;;;;;;0.48;83.78;100120.34;5123066;28;19923;-60
2021/12/15 15:43:14;;;;;;;;;;;;;;;0.33;83.49;100117.41;5120379;28;19912;-60
2021/12/15 15:45:41;;;;;;;;;;;;;;;0.41;84.43;100115.06;5122931;28;19931;-59
2021/12/15 15:48:09;;;;;;;;;;;;;;;0.51;84.07;100111.94;5121331;28;19926;-60